createdAt,value
2019-03-03T00:01:16.009Z,9.60
2019-03-03T00:03:45.449Z,9.70
2019-03-03T00:06:14.922Z,9.70
2019-03-03T00:08:44.529Z,9.60
2019-03-03T00:11:15.747Z,9.60
2019-03-03T00:13:45.173Z,9.70
2019-03-03T00:16:16.567Z,9.70
2019-03-03T00:18:46.054Z,9.70
2019-03-03T00:21:15.675Z,9.70
2019-03-03T00:23:45.114Z,9.70
2019-03-03T00:26:15.712Z,9.70
2019-03-03T00:28:48.003Z,9.70
2019-03-03T00:31:19.301Z,9.70
2019-03-03T00:33:48.743Z,9.80
2019-03-03T00:36:18.467Z,9.80
2019-03-03T00:38:49.570Z,9.80
2019-03-03T00:41:32.766Z,9.80
2019-03-03T00:44:04.585Z,9.90
2019-03-03T00:46:52.315Z,9.90
2019-03-03T00:49:35.609Z,10.00
2019-03-03T00:52:16.795Z,9.90
2019-03-03T00:54:47.855Z,9.90
2019-03-03T00:57:27.904Z,9.90
2019-03-03T01:00:01.783Z,9.90
2019-03-03T01:02:32.930Z,10.00
2019-03-03T01:05:04.112Z,10.10
2019-03-03T01:07:41.434Z,10.10
2019-03-03T01:10:15.854Z,10.10
2019-03-03T01:13:03.507Z,10.10
2019-03-03T01:15:52.980Z,10.10
2019-03-03T01:18:30.098Z,10.10
2019-03-03T01:21:10.483Z,10.20
2019-03-03T01:23:41.489Z,10.20
2019-03-03T01:26:10.961Z,10.30
2019-03-03T01:28:40.401Z,10.30
2019-03-03T01:31:09.851Z,10.30
2019-03-03T01:33:39.385Z,10.40
2019-03-03T01:36:08.839Z,10.40
2019-03-03T01:38:38.275Z,10.40
2019-03-03T01:41:07.790Z,10.40
2019-03-03T01:43:38.376Z,10.30
2019-03-03T01:46:07.888Z,10.30
2019-03-03T01:48:37.316Z,10.40
2019-03-03T01:51:07.844Z,10.50
2019-03-03T01:53:37.195Z,10.50
2019-03-03T01:56:06.792Z,10.40
2019-03-03T01:58:36.867Z,10.50
2019-03-03T02:01:07.369Z,10.50
2019-03-03T02:03:37.202Z,10.50
2019-03-03T02:06:07.944Z,10.60
2019-03-03T02:08:37.513Z,10.60
2019-03-03T02:11:08.158Z,10.60
2019-03-03T02:13:37.678Z,10.60
2019-03-03T02:16:08.021Z,10.50
2019-03-03T02:18:37.898Z,10.60
2019-03-03T02:21:08.178Z,10.60
2019-03-03T02:23:38.322Z,10.60
2019-03-03T02:26:08.322Z,10.50
2019-03-03T02:28:38.470Z,10.60
2019-03-03T02:31:08.899Z,10.70
2019-03-03T02:33:38.712Z,10.60
2019-03-03T02:36:08.979Z,10.60
2019-03-03T02:38:39.044Z,10.70
2019-03-03T02:41:09.847Z,10.60
2019-03-03T02:43:41.047Z,10.70
2019-03-03T02:46:10.473Z,10.70
2019-03-03T02:48:40.042Z,10.70
2019-03-03T02:51:09.705Z,10.70
2019-03-03T02:53:39.818Z,10.70
2019-03-03T02:56:09.958Z,10.70
2019-03-03T02:58:40.141Z,10.70
2019-03-03T03:01:17.690Z,10.70
2019-03-03T03:03:47.120Z,10.80
2019-03-03T03:06:18.346Z,10.70
2019-03-03T03:09:05.823Z,10.70
2019-03-03T03:11:54.874Z,10.70
2019-03-03T03:14:39.824Z,10.70
2019-03-03T03:17:22.919Z,10.70
2019-03-03T03:19:56.975Z,10.70
2019-03-03T03:22:40.071Z,10.70
2019-03-03T03:25:27.351Z,10.70
2019-03-03T03:28:01.443Z,10.70
2019-03-03T03:30:32.523Z,10.70
2019-03-03T03:33:03.655Z,10.70
2019-03-03T03:35:34.746Z,10.70
2019-03-03T03:38:08.709Z,10.80
2019-03-03T03:40:42.542Z,10.80
2019-03-03T03:43:23.312Z,10.80
2019-03-03T03:45:54.412Z,10.90
2019-03-03T03:48:34.345Z,10.90
2019-03-03T03:51:14.426Z,10.90
2019-03-03T03:53:48.355Z,10.90
2019-03-03T03:56:34.847Z,10.90
2019-03-03T03:59:06.136Z,11.00
2019-03-03T04:01:37.215Z,11.00
2019-03-03T04:04:14.196Z,11.00
2019-03-03T04:06:48.272Z,11.00
2019-03-03T04:09:25.457Z,11.00
2019-03-03T04:12:02.312Z,11.00
2019-03-03T04:14:33.420Z,11.00
2019-03-03T04:17:04.547Z,10.90
2019-03-03T04:19:35.583Z,10.90
2019-03-03T04:22:15.834Z,10.90
2019-03-03T04:24:49.770Z,10.90
2019-03-03T04:27:20.837Z,11.00
2019-03-03T04:29:51.939Z,11.00
2019-03-03T04:32:28.972Z,10.90
2019-03-03T04:35:06.051Z,10.90
2019-03-03T04:37:43.320Z,10.90
2019-03-03T04:40:20.767Z,10.90
2019-03-03T04:42:57.502Z,10.90
2019-03-03T04:45:28.610Z,10.90
2019-03-03T04:47:59.692Z,10.80
2019-03-03T04:50:30.929Z,10.80
2019-03-03T04:53:04.591Z,10.90
2019-03-03T04:55:45.047Z,10.80
2019-03-03T04:58:16.113Z,10.70
2019-03-03T05:00:50.061Z,10.60
2019-03-03T05:03:39.234Z,10.60
2019-03-03T05:06:10.401Z,10.50
2019-03-03T05:08:53.171Z,10.50
2019-03-03T05:12:17.700Z,10.50
2019-03-03T05:14:47.133Z,10.40
2019-03-03T05:17:20.649Z,10.40
2019-03-03T05:19:51.643Z,10.40
2019-03-03T05:22:21.103Z,10.40
2019-03-03T05:24:50.601Z,10.40
2019-03-03T05:27:19.950Z,10.40
2019-03-03T05:29:49.425Z,10.50
2019-03-03T05:32:19.631Z,10.40
2019-03-03T05:34:50.003Z,10.30
2019-03-03T05:37:19.970Z,10.40
2019-03-03T05:39:49.345Z,10.40
2019-03-03T05:42:18.773Z,10.30
2019-03-03T05:44:48.188Z,10.30
2019-03-03T05:47:17.675Z,10.30
2019-03-03T05:49:47.042Z,10.30
2019-03-03T05:52:16.607Z,10.20
2019-03-03T05:54:46.049Z,10.20
2019-03-03T05:57:16.084Z,10.20
2019-03-03T05:59:45.533Z,10.20
2019-03-03T06:02:14.885Z,10.20
2019-03-03T06:04:44.264Z,10.20
2019-03-03T06:07:13.618Z,10.20
2019-03-03T06:09:43.057Z,10.20
2019-03-03T06:12:12.412Z,10.10
2019-03-03T06:14:41.789Z,10.10
2019-03-03T06:17:11.151Z,10.10
2019-03-03T06:19:40.611Z,10.20
2019-03-03T06:22:10.049Z,10.10
2019-03-03T06:24:39.443Z,10.10
2019-03-03T06:27:08.893Z,10.10
2019-03-03T06:29:38.333Z,10.10
2019-03-03T06:32:07.788Z,10.10
2019-03-03T06:34:37.168Z,10.10
2019-03-03T06:37:07.527Z,10.20
2019-03-03T06:39:36.980Z,10.30
2019-03-03T06:42:06.455Z,10.30
2019-03-03T06:44:35.899Z,10.30
2019-03-03T06:47:05.431Z,10.30
2019-03-03T06:49:35.155Z,10.30
2019-03-03T06:52:04.666Z,10.40
2019-03-03T06:54:34.103Z,10.30
2019-03-03T06:57:03.547Z,10.40
2019-03-03T06:59:32.988Z,10.40
2019-03-03T07:02:02.440Z,10.50
2019-03-03T07:04:31.857Z,10.50
2019-03-03T07:07:01.315Z,10.50
2019-03-03T07:09:30.761Z,10.50
2019-03-03T07:12:00.198Z,10.50
2019-03-03T07:14:29.643Z,10.50
2019-03-03T07:16:59.089Z,10.50
2019-03-03T07:19:28.529Z,10.50
2019-03-03T07:21:57.983Z,10.50
2019-03-03T07:24:27.419Z,10.50
2019-03-03T07:26:56.885Z,10.50
2019-03-03T07:29:26.317Z,10.60
2019-03-03T07:31:56.286Z,10.60
2019-03-03T07:34:26.743Z,10.60
2019-03-03T07:36:59.346Z,10.60
2019-03-03T07:39:28.771Z,10.70
2019-03-03T07:41:58.239Z,10.70
2019-03-03T07:44:27.669Z,10.70
2019-03-03T07:46:57.117Z,10.70
2019-03-03T07:49:26.468Z,10.70
2019-03-03T07:51:55.921Z,10.70
2019-03-03T07:54:25.390Z,10.80
2019-03-03T07:56:54.855Z,10.80
2019-03-03T07:59:24.283Z,10.90
2019-03-03T08:01:54.013Z,10.90
2019-03-03T08:04:23.426Z,11.00
2019-03-03T08:06:52.805Z,11.00
2019-03-03T08:09:22.224Z,11.00
2019-03-03T08:11:51.686Z,11.00
2019-03-03T08:14:21.101Z,11.10
2019-03-03T08:16:50.532Z,11.10
2019-03-03T08:19:19.900Z,11.10
2019-03-03T08:21:49.332Z,11.10
2019-03-03T08:24:18.910Z,11.00
2019-03-03T08:26:48.334Z,10.90
2019-03-03T08:29:17.736Z,10.90
2019-03-03T08:31:47.169Z,11.00
2019-03-03T08:34:17.612Z,11.00
2019-03-03T08:36:47.061Z,11.00
2019-03-03T08:39:16.608Z,11.10
2019-03-03T08:41:47.702Z,11.10
2019-03-03T08:44:18.769Z,11.10
2019-03-03T08:47:06.174Z,11.10
2019-03-03T08:49:40.182Z,11.10
2019-03-03T08:52:17.449Z,11.10
2019-03-03T08:55:00.550Z,11.10
2019-03-03T08:57:31.642Z,11.10
2019-03-03T09:00:09.482Z,11.10
2019-03-03T09:02:40.654Z,11.00
2019-03-03T09:05:14.669Z,11.00
2019-03-03T09:07:54.261Z,11.10
2019-03-03T09:10:33.974Z,11.10
2019-03-03T09:13:14.152Z,11.00
2019-03-03T09:15:45.166Z,11.00
2019-03-03T09:18:19.234Z,10.90
2019-03-03T09:20:56.041Z,10.90
2019-03-03T09:23:32.914Z,10.90
2019-03-03T09:26:06.948Z,10.90
2019-03-03T09:28:44.078Z,10.80
2019-03-03T09:31:17.790Z,10.80
2019-03-03T09:34:06.526Z,10.70
2019-03-03T09:36:37.606Z,10.80
2019-03-03T09:39:25.802Z,10.90
2019-03-03T09:41:59.328Z,10.90
2019-03-03T09:44:33.383Z,10.90
2019-03-03T09:47:07.142Z,10.80
2019-03-03T09:49:38.458Z,10.80
2019-03-03T09:52:12.485Z,10.80
2019-03-03T09:54:43.577Z,10.80
2019-03-03T09:57:15.726Z,10.80
2019-03-03T09:59:58.723Z,10.70
2019-03-03T10:02:35.406Z,10.70
2019-03-03T10:05:15.024Z,10.70
2019-03-03T10:08:02.421Z,10.70
2019-03-03T10:10:37.291Z,10.70
2019-03-03T10:13:08.396Z,10.70
2019-03-03T10:15:39.505Z,10.70
2019-03-03T10:18:27.172Z,10.70
2019-03-03T10:21:07.158Z,10.70
2019-03-03T10:23:41.452Z,10.60
2019-03-03T10:26:27.675Z,10.50
2019-03-03T10:29:04.644Z,10.60
2019-03-03T10:31:39.614Z,10.80
2019-03-03T10:34:10.755Z,11.00
2019-03-03T10:36:50.849Z,11.10
2019-03-03T10:39:21.939Z,11.20
2019-03-03T10:42:08.871Z,11.30
2019-03-03T10:44:55.949Z,11.40
2019-03-03T10:47:43.010Z,11.50
2019-03-03T10:50:30.819Z,11.60
2019-03-03T10:53:08.142Z,11.60
2019-03-03T10:55:43.589Z,11.60
2019-03-03T10:58:27.438Z,11.60
2019-03-03T11:01:01.443Z,11.60
2019-03-03T11:03:50.026Z,11.60
2019-03-03T11:06:27.088Z,11.70
2019-03-03T11:09:08.209Z,11.90
2019-03-03T11:11:48.074Z,12.00
2019-03-03T11:14:19.239Z,12.00
2019-03-03T11:16:56.622Z,12.00
2019-03-03T11:19:39.698Z,11.90
2019-03-03T11:22:17.285Z,11.90
2019-03-03T11:24:51.417Z,12.10
2019-03-03T11:27:22.609Z,12.20
2019-03-03T11:29:56.695Z,12.40
2019-03-03T11:32:44.699Z,12.40
2019-03-03T11:35:18.865Z,12.50
2019-03-03T11:37:50.131Z,12.50
2019-03-03T11:40:24.086Z,12.50
2019-03-03T11:43:10.437Z,12.50
2019-03-03T11:45:42.823Z,12.50
2019-03-03T11:48:14.083Z,12.40
2019-03-03T11:50:45.317Z,12.30
2019-03-03T11:53:19.466Z,12.30
2019-03-03T11:55:53.416Z,12.30
2019-03-03T11:58:30.369Z,12.40
2019-03-03T12:01:16.409Z,12.30
2019-03-03T12:03:47.569Z,12.30
2019-03-03T12:06:30.656Z,12.30
2019-03-03T12:09:17.827Z,12.40
2019-03-03T12:11:48.975Z,12.40
2019-03-03T12:14:22.791Z,12.30
2019-03-03T12:16:53.961Z,12.30
2019-03-03T12:19:25.202Z,12.10
2019-03-03T12:22:05.703Z,12.10
2019-03-03T12:24:36.901Z,12.10
2019-03-03T12:27:11.323Z,12.10
2019-03-03T12:29:51.308Z,12.10
2019-03-03T12:32:22.414Z,12.00
2019-03-03T12:34:59.392Z,12.00
2019-03-03T12:37:36.516Z,12.10
2019-03-03T12:40:16.441Z,12.20
2019-03-03T12:42:51.887Z,12.30
2019-03-03T12:45:41.395Z,12.40
2019-03-03T12:48:21.465Z,12.50
2019-03-03T12:50:52.584Z,12.50
2019-03-03T12:53:40.110Z,12.50
2019-03-03T12:56:29.902Z,12.60
2019-03-03T12:59:03.663Z,12.70
2019-03-03T13:01:34.845Z,12.60
2019-03-03T13:04:08.734Z,12.60
2019-03-03T13:06:52.026Z,12.70
2019-03-03T13:09:28.874Z,12.70
2019-03-03T13:12:16.239Z,12.70
2019-03-03T13:14:50.590Z,12.70
2019-03-03T13:17:21.709Z,12.60
2019-03-03T13:20:07.912Z,12.60
2019-03-03T13:22:45.270Z,12.60
2019-03-03T13:25:16.517Z,12.60
2019-03-03T13:27:47.670Z,12.70
2019-03-03T13:30:28.178Z,12.60
2019-03-03T13:33:08.212Z,12.50
2019-03-03T13:35:42.361Z,12.40
2019-03-03T13:38:16.232Z,12.40
2019-03-03T13:40:47.384Z,12.40
2019-03-03T13:43:16.887Z,12.40
2019-03-03T13:45:46.492Z,12.30
2019-03-03T13:48:17.559Z,12.30
2019-03-03T13:50:47.442Z,12.40
2019-03-03T13:53:19.303Z,12.40
2019-03-03T13:55:49.520Z,12.30
2019-03-03T13:58:19.480Z,12.30
2019-03-03T14:00:51.040Z,12.30
2019-03-03T14:03:20.655Z,12.30
2019-03-03T14:05:50.226Z,12.30
2019-03-03T14:08:20.340Z,12.30
2019-03-03T14:10:50.335Z,12.30
2019-03-03T14:13:20.393Z,12.20
2019-03-03T14:15:51.999Z,12.20
2019-03-03T14:18:21.491Z,12.20
2019-03-03T14:20:51.920Z,12.30
2019-03-03T14:23:21.462Z,12.30
2019-03-03T14:25:51.149Z,12.20
2019-03-03T14:28:22.499Z,12.10
2019-03-03T14:30:51.887Z,12.10
2019-03-03T14:33:21.635Z,12.00
2019-03-03T14:35:51.721Z,12.00
2019-03-03T14:38:21.850Z,11.90
2019-03-03T14:40:52.270Z,11.90
2019-03-03T14:43:24.063Z,11.80
2019-03-03T14:45:53.564Z,11.70
2019-03-03T14:48:23.376Z,11.70
2019-03-03T14:50:54.544Z,11.60
2019-03-03T14:53:25.472Z,11.60
2019-03-03T14:55:55.236Z,11.60
2019-03-03T14:58:26.490Z,11.50
2019-03-03T15:00:55.951Z,11.40
2019-03-03T15:03:25.569Z,11.40
2019-03-03T15:05:56.206Z,11.40
2019-03-03T15:08:26.954Z,11.30
2019-03-03T15:10:56.846Z,11.30
2019-03-03T15:13:26.353Z,11.20
2019-03-03T15:15:57.702Z,11.10
2019-03-03T15:18:27.556Z,11.00
2019-03-03T15:20:57.623Z,11.00
2019-03-03T15:23:27.060Z,11.00
2019-03-03T15:25:56.874Z,11.00
2019-03-03T15:28:27.801Z,11.10
2019-03-03T15:30:57.474Z,11.10
2019-03-03T15:33:27.070Z,11.00
2019-03-03T15:35:57.902Z,11.00
2019-03-03T15:38:29.403Z,11.00
2019-03-03T15:40:58.993Z,11.00
2019-03-03T15:43:28.550Z,11.00
2019-03-03T15:45:58.402Z,11.00
2019-03-03T15:48:29.134Z,11.00
2019-03-03T15:51:00.341Z,11.10
2019-03-03T15:53:29.738Z,11.10
2019-03-03T15:56:01.615Z,11.20
2019-03-03T15:58:32.428Z,11.30
2019-03-03T16:01:02.020Z,11.30
2019-03-03T16:03:32.902Z,11.30
2019-03-03T16:06:02.728Z,11.30
2019-03-03T16:08:32.175Z,11.20
2019-03-03T16:11:04.634Z,11.30
2019-03-03T16:13:35.211Z,11.30
2019-03-03T16:16:07.385Z,11.30
2019-03-03T16:18:38.476Z,11.30
2019-03-03T16:21:08.056Z,11.40
2019-03-03T16:23:39.055Z,11.30
2019-03-03T16:26:08.658Z,11.30
2019-03-03T16:28:39.462Z,11.30
2019-03-03T16:31:11.222Z,11.30
2019-03-03T16:33:42.110Z,11.40
2019-03-03T16:36:11.637Z,11.40
2019-03-03T16:38:42.712Z,11.30
2019-03-03T16:41:12.310Z,11.30
2019-03-03T16:43:41.793Z,11.40
2019-03-03T16:46:11.382Z,11.30
2019-03-03T16:48:40.914Z,11.40
2019-03-03T16:51:10.392Z,11.40
2019-03-03T16:53:41.484Z,11.40
2019-03-03T16:56:11.334Z,11.40
2019-03-03T16:58:41.118Z,11.40
2019-03-03T17:01:12.062Z,11.40
2019-03-03T17:03:43.291Z,11.40
2019-03-03T17:06:12.891Z,11.40
2019-03-03T17:08:45.139Z,11.40
2019-03-03T17:11:17.501Z,11.40
2019-03-03T17:13:47.011Z,11.50
2019-03-03T17:16:16.626Z,11.50
2019-03-03T17:18:48.731Z,11.50
2019-03-03T17:21:18.245Z,11.50
2019-03-03T17:23:49.298Z,11.60
2019-03-03T17:26:18.863Z,11.60
2019-03-03T17:28:48.305Z,11.60
2019-03-03T17:31:17.898Z,11.60
2019-03-03T17:33:48.888Z,11.60
2019-03-03T17:36:18.338Z,11.60
2019-03-03T17:38:47.855Z,11.60
2019-03-03T17:41:17.475Z,11.60
2019-03-03T17:43:47.383Z,11.70
2019-03-03T17:46:16.903Z,11.70
2019-03-03T17:48:46.378Z,11.80
2019-03-03T17:51:16.206Z,11.80
2019-03-03T17:53:47.461Z,11.80
2019-03-03T17:56:21.468Z,11.80
2019-03-03T17:58:48.022Z,11.80
2019-03-03T18:01:21.049Z,11.90
2019-03-03T18:03:50.664Z,11.90
2019-03-03T18:06:21.206Z,11.90
2019-03-03T18:08:50.674Z,11.90
2019-03-03T18:11:20.914Z,11.90
2019-03-03T18:13:50.396Z,11.90
2019-03-03T18:16:19.855Z,11.90
2019-03-03T18:18:49.367Z,12.00
2019-03-03T18:21:19.489Z,12.00
2019-03-03T18:23:53.193Z,12.00
2019-03-03T18:26:22.730Z,11.90
2019-03-03T18:28:53.541Z,12.00
2019-03-03T18:31:23.146Z,12.00
2019-03-03T18:33:53.081Z,12.00
2019-03-03T18:36:24.183Z,11.90
2019-03-03T18:38:53.782Z,11.90
2019-03-03T18:41:26.320Z,11.90
2019-03-03T18:43:55.904Z,12.00
2019-03-03T18:46:26.543Z,12.00
2019-03-03T18:48:57.136Z,11.90
2019-03-03T18:51:28.163Z,11.90
2019-03-03T18:53:57.656Z,12.00
2019-03-03T18:56:27.767Z,11.90
2019-03-03T18:58:57.805Z,11.90
2019-03-03T19:01:27.398Z,11.90
2019-03-03T19:03:58.068Z,11.90
2019-03-03T19:06:28.884Z,11.90
2019-03-03T19:08:58.551Z,11.80
2019-03-03T19:11:27.993Z,11.80
2019-03-03T19:14:01.552Z,11.80
2019-03-03T19:16:31.127Z,11.80
2019-03-03T19:19:00.603Z,11.80
2019-03-03T19:21:32.026Z,11.80
2019-03-03T19:24:10.397Z,11.90
2019-03-03T19:26:40.880Z,11.90
2019-03-03T19:29:13.017Z,11.80
2019-03-03T19:31:45.498Z,11.80
2019-03-03T19:34:18.045Z,11.80
2019-03-03T19:36:50.481Z,11.70
2019-03-03T19:39:20.150Z,11.70
2019-03-03T19:41:49.617Z,11.70
2019-03-03T19:44:21.126Z,11.70
2019-03-03T19:46:50.488Z,11.70
2019-03-03T19:49:20.383Z,11.70
2019-03-03T19:51:51.210Z,11.60
2019-03-03T19:54:20.753Z,11.60
2019-03-03T19:56:50.313Z,11.60
2019-03-03T19:59:19.833Z,11.60
2019-03-03T20:01:52.093Z,11.60
2019-03-03T20:04:24.244Z,11.60
2019-03-03T20:06:55.414Z,11.60
2019-03-03T20:09:28.465Z,11.60
2019-03-03T20:11:57.966Z,11.60
2019-03-03T20:14:27.562Z,11.60
2019-03-03T20:16:58.025Z,11.70
2019-03-03T20:19:30.498Z,11.70
2019-03-03T20:22:02.199Z,11.60
2019-03-03T20:24:35.453Z,11.60
2019-03-03T20:27:09.804Z,11.70
2019-03-03T20:29:40.261Z,11.70
2019-03-03T20:32:09.992Z,11.70
2019-03-03T20:34:41.074Z,11.60
2019-03-03T20:37:11.609Z,11.70
2019-03-03T20:39:42.147Z,11.70
2019-03-03T20:42:14.874Z,11.70
2019-03-03T20:44:44.368Z,11.70
2019-03-03T20:47:13.946Z,11.70
2019-03-03T20:49:44.103Z,11.80
2019-03-03T20:52:16.219Z,11.80
2019-03-03T20:54:45.407Z,11.80
2019-03-03T20:57:16.493Z,11.80
2019-03-03T20:59:46.011Z,11.70
2019-03-03T21:02:15.639Z,11.70
2019-03-03T21:04:45.182Z,11.70
2019-03-03T21:07:14.914Z,11.70
2019-03-03T21:09:45.018Z,11.60
2019-03-03T21:12:15.046Z,11.60
2019-03-03T21:14:46.631Z,11.60
2019-03-03T21:17:16.106Z,11.60
2019-03-03T21:19:47.230Z,11.60
2019-03-03T21:22:18.544Z,11.60
2019-03-03T21:24:49.267Z,11.60
2019-03-03T21:27:18.853Z,11.60
2019-03-03T21:29:50.920Z,11.60
2019-03-03T21:32:20.501Z,11.60
2019-03-03T21:34:51.208Z,11.60
2019-03-03T21:37:20.691Z,11.60
2019-03-03T21:39:52.405Z,11.60
2019-03-03T21:42:21.884Z,11.60
2019-03-03T21:44:51.867Z,11.60
2019-03-03T21:47:21.348Z,11.60
2019-03-03T21:49:56.650Z,11.50
2019-03-03T21:52:29.777Z,11.60
2019-03-03T21:54:59.375Z,11.50
2019-03-03T21:57:28.878Z,11.60
2019-03-03T21:59:58.343Z,11.60
2019-03-03T22:02:27.938Z,11.50
2019-03-03T22:04:57.490Z,11.50
2019-03-03T22:07:26.942Z,11.50
2019-03-03T22:09:56.395Z,11.60
2019-03-03T22:12:26.365Z,11.60
2019-03-03T22:14:55.830Z,11.60
2019-03-03T22:17:25.286Z,11.60
2019-03-03T22:19:54.738Z,11.60
2019-03-03T22:22:24.218Z,11.60
2019-03-03T22:24:53.658Z,11.50
2019-03-03T22:27:24.200Z,11.50
2019-03-03T22:29:53.658Z,11.50
2019-03-03T22:32:23.542Z,11.50
2019-03-03T22:34:53.723Z,11.50
2019-03-03T22:37:23.804Z,11.50
2019-03-03T22:39:54.025Z,11.50
2019-03-03T22:42:24.594Z,11.50
2019-03-03T22:44:54.160Z,11.50
2019-03-03T22:47:24.362Z,11.60
2019-03-03T22:49:54.598Z,11.60
2019-03-03T22:52:24.602Z,11.50
2019-03-03T22:54:54.978Z,11.50
2019-03-03T22:57:24.946Z,11.50
2019-03-03T22:59:55.178Z,11.50
2019-03-03T23:02:25.224Z,11.50
2019-03-03T23:05:04.070Z,11.50
2019-03-03T23:07:42.328Z,11.50
2019-03-03T23:10:23.862Z,11.50
2019-03-03T23:13:20.809Z,11.50
2019-03-03T23:15:59.284Z,11.60
2019-03-03T23:18:37.518Z,11.50
2019-03-03T23:21:19.048Z,11.50
2019-03-03T23:24:09.212Z,11.50
2019-03-03T23:26:39.744Z,11.50
2019-03-03T23:29:09.111Z,11.50
2019-03-03T23:31:38.496Z,11.50
2019-03-03T23:34:09.040Z,11.50
2019-03-03T23:36:38.470Z,11.50
2019-03-03T23:39:08.211Z,11.50
2019-03-03T23:41:38.342Z,11.50
2019-03-03T23:44:07.820Z,11.50
2019-03-03T23:46:37.270Z,11.50
2019-03-03T23:49:06.722Z,11.50
2019-03-03T23:51:36.181Z,11.50
2019-03-03T23:54:05.622Z,11.50
2019-03-03T23:56:36.746Z,11.50
2019-03-03T23:59:06.191Z,11.50
